Архив погоды в Верхнем Уфалее

Метеограмма Верхний Уфалей
Вторник, 14 Августа
Время местн. Темп Ветер Видим Явления Облачность нижн/средн/верх Атм. давл. Влжн Точка росы ВНГО R Сост. почвы Tg s
Напр Скр Прв ур.ст ур.м изм
23:00 +15.9° С-В 1 - 20 км - преимущественно облачно 722 757 -0.1 85% +13.4° 1 км - - - -
20:00 +18.8° штиль 0 - 20 км - облачно с прояснениями 723 757 -0.4 77% +14.7° 1 км 0.7 - - -
17:00 +18.5° штиль 0 - 10 км ливневый дождь преимущественно облачно 723 757 -0.6 79% +14.7° 1 км - - - -
14:00 +20.3° З 2 - 20 км небо без изменений {ливневые осадки} облачно 723 757 -0.5 68% +14.1° 1 км - - - -
11:00 +18.7° Ю,Ю-З 1 - 20 км - преимущественно облачно 724 758 +0.5 77% +14.5° - - - - -
08:00 +16.6° штиль 0 - 20 км - преимущественно облачно 723 758 +0.1 86% +14.3° - 0 Сухая (без трещин) - -
05:00 +11.1° штиль 0 - 20 км - переменная облачность 723 759 -0.2 95% +10.3° более 2.5 км - - - -
02:00 +13° штиль 0 - 20 км - ясно 724 759 +0.1 94% +12.1° более 2.5 км - - - -
Понедельник, 13 Августа
Время местн. Темп Ветер Видим Явления Облачность нижн/средн/верх Атм. давл. Влжн Точка росы ВНГО R Сост. почвы Tg s
Напр Скр Прв ур.ст ур.м изм
23:00 +15.1° штиль 0 - 20 км - ясно 724 758 +0.4 86% +12.8° более 2.5 км - - - -
20:00 +23.9° Ю-З 2 - 20 км - переменная облачность 723 757 -0.2 52% +13.5° 1 км 0 - - -
17:00 +27.1° З 4 - 50 км - переменная облачность 724 757 -0.7 36% +10.9° 1 км - - - -
14:00 +25.7° З 3 - 20 км - переменная облачность 724 758 -0.8 51% +14.9° 1 км - - - -
11:00 +22.9° Ю,Ю-З 2 - 20 км - переменная облачность 725 759 -0.2 66% +16.1° 1 км - - - -
08:00 +17.3° Ю-З 1 - 20 км - ясно 725 760 +0.2 84% +14.5° более 2.5 км 0 Влажная (без луж) - -
05:00 +14° штиль 0 - 20 км - ясно 725 760 -0.1 94% +13.1° более 2.5 км - - - -
02:00 +15.9° В,Ю-В 1 - 20 км - переменная облачность 725 760 -0.2 96% +15.3° более 2.5 км - - - -
Воскресенье, 12 Августа
Время местн. Темп Ветер Видим Явления Облачность нижн/средн/верх Атм. давл. Влжн Точка росы ВНГО R Сост. почвы Tg s
Напр Скр Прв ур.ст ур.м изм
23:00 +16.6° В 1 - 20 км - переменная облачность 725 760 +0.5 91% +15.1° - - - - -
20:00 +21.5° С-З 1 - 20 км - переменная облачность 725 759 +0.3 73% +16.5° 1 км 0 - - -
17:00 +23° З,С-З 3 - 20 км - облачно с прояснениями 724 758 -0.1 65% +16.1° 1 км - - - -
14:00 +18.9° З 2 - 20 км - преимущественно облачно 724 759 -0.2 75% +14.4° 1 км - - - -
11:00 +15.7° З 2 - 20 км - облачно 725 759 +0.3 81% +12.4° 1 км - - - -
08:00 +13.2° Ю 1 - 20 км - облачно с прояснениями 724 759 +0.3 86% +10.9° 1 км 0 Влажная (без луж) - -
05:00 +8.6° штиль 0 - 20 км - переменная облачность 724 760 +0.4 92% +7.3° - - - - -
02:00 +9.4° С-В 1 - 20 км - ясно 724 759 +0.4 89% +7.6° более 2.5 км - - - -
Суббота, 11 Августа
Время местн. Темп Ветер Видим Явления Облачность нижн/средн/верх Атм. давл. Влжн Точка росы ВНГО R Сост. почвы Tg s
Напр Скр Прв ур.ст ур.м изм
23:00 +12.6° В,С-В 1 - 20 км - ясно 723 758 +1.2 81% +9.5° более 2.5 км - - - -
20:00 +18.7° С-З 1 - 20 км - облачно с прояснениями 722 756 +1.2 54% +9.2° 1 км 0 - - -